Latest Weather Observations for Hunters Hill

IDV60801

Issued at 6:32 pm EDT Saturday 25 March 2017 (issued every 30 minutes, with the page automatically refreshed every 10 minutes)

About weather observations | Map of weather stations | Latest weather observations for VIC | Other Formats
Station Details ID: 082139 Name: HUNTERS HILL Lat: -36.21 Lon: 147.54 Height: 981.0 m
Data from the previous 72 hours. | See also: Recent months at Hunters Hill
Date/Time
EDT
Temp
°C
App
Temp
°C
Dew
Point
°C
Rel
Hum
%
Delta-T
°C
Wind Press
QNH
hPa
Press
MSL
hPa
Rain since
9am
mm
Dir  Spd
km/h
Gust
km/h
Spd
kts
Gust
kts
25/06:30pm 16.3 18.2 15.7 96 0.4 CALM 0 0 0 0 - - 2.6
25/06:00pm 17.8 19.9 16.3 91 0.9 CALM 0 0 0 0 - - 2.6
25/05:30pm 18.3 20.1 15.6 84 1.7 CALM 0 2 0 1 - - 2.6
25/05:00pm 18.3 19.7 15.4 83 1.8 NNE 2 6 1 3 - - 2.6
25/04:30pm 17.6 19.9 16.8 95 0.5 CALM 0 0 0 0 - - 2.6
25/04:00pm 16.9 18.7 15.6 92 0.8 CALM 0 4 0 2 - - 2.6
25/03:30pm 16.3 17.8 15.7 96 0.4 NNE 2 6 1 3 - - 2.6
25/03:00pm 16.2 18.2 15.9 98 0.2 CALM 0 2 0 1 - - 2.6
25/02:30pm 16.5 18.6 16.3 99 0.1 CALM 0 0 0 0 - - 2.6
25/02:00pm 16.1 17.9 15.5 96 0.4 CALM 0 0 0 0 - - 2.6
25/01:30pm 16.2 18.2 16.0 99 0.1 CALM 0 0 0 0 - - 2.6
25/01:00pm 15.6 17.2 15.0 96 0.4 CALM 0 2 0 1 - - 2.6
25/12:30pm 14.6 15.6 14.4 99 0.1 NNE 2 6 1 3 - - 2.6
25/12:00pm 13.6 14.4 13.6 100 0.0 NNE 2 6 1 3 - - 2.4
25/11:30am 13.4 13.2 13.1 98 0.2 NNE 6 7 3 4 - - 1.2
25/11:00am 13.5 13.7 13.2 98 0.2 NNE 4 6 2 3 - - 0.8
25/10:30am 13.3 13.2 12.2 93 0.6 NNE 4 6 2 3 - - 0.6
25/10:00am 14.4 14.0 11.2 81 1.8 NNE 4 6 2 3 - - 0.0
25/09:30am 14.5 14.4 10.9 79 2.0 NNE 2 7 1 4 - - 0.0
25/09:00am 14.3 13.8 10.7 79 2.0 NNE 4 6 2 3 - - 0.0
25/08:30am 14.0 13.8 10.6 80 1.9 NNE 2 6 1 3 - - 0.0
25/08:00am 14.0 13.8 10.6 80 1.9 NNE 2 4 1 2 - - 0.0
25/07:30am 14.0 13.8 10.4 79 2.0 NNE 2 6 1 3 - - 0.0
25/07:00am 14.3 13.7 10.5 78 2.1 NNE 4 6 2 3 - - 0.0
25/06:30am 14.3 13.7 10.5 78 2.1 NNE 4 6 2 3 - - 0.0
25/06:00am 14.4 14.2 10.6 78 2.1 NNE 2 6 1 3 - - 0.0
25/05:30am 14.4 14.2 10.6 78 2.1 NNE 2 4 1 2 - - 0.0
25/05:00am 14.3 13.7 10.5 78 2.1 NNE 4 7 2 4 - - 0.0
25/04:30am 13.8 14.1 10.8 82 1.7 CALM 0 0 0 0 - - 0.0
25/04:00am 13.4 13.8 11.1 86 1.3 CALM 0 2 0 1 - - 0.0
25/03:30am 13.5 13.6 11.4 87 1.2 NNE 2 4 1 2 - - 0.0
25/03:00am 13.7 13.7 11.2 85 1.4 NNE 2 6 1 3 - - 0.0
25/02:30am 13.7 13.6 10.7 82 1.7 NNE 2 4 1 2 - - 0.0
25/02:00am 14.7 14.2 10.7 77 2.2 NNE 4 6 2 3 - - 0.0
25/01:30am 15.3 14.2 9.9 70 3.0 NNE 6 7 3 4 - - 0.0
25/01:00am 15.5 14.6 10.5 72 2.8 NNE 6 13 3 7 - - 0.0
25/12:30am 15.2 14.1 10.6 74 2.6 NNE 7 13 4 7 - - 0.0
25/12:00am 15.2 14.1 10.6 74 2.6 NNE 7 13 4 7 - - 0.0
 
Date/Time
EDT
Temp
°C
App
Temp
°C
Dew
Point
°C
Rel
Hum
%
Delta-T
°C
Wind Press
QNH
hPa
Press
MSL
hPa
Rain since
9am
mm
Dir  Spd
km/h
Gust
km/h
Spd
kts
Gust
kts
24/11:30pm 15.4 14.3 10.8 74 2.6 NNE 7 15 4 8 - - 0.0
24/11:00pm 15.8 14.7 10.8 72 2.8 N 7 11 4 6 - - 0.0
24/10:30pm 16.1 15.3 11.1 72 2.8 N 6 11 3 6 - - 0.0
24/10:00pm 16.5 15.7 11.0 70 3.1 N 6 11 3 6 - - 0.0
24/09:30pm 17.0 16.3 11.5 70 3.1 NNE 6 9 3 5 - - 0.0
24/09:00pm 17.2 17.2 11.0 67 3.5 NE 2 6 1 3 - - 0.0
24/08:30pm 17.3 17.5 10.7 65 3.7 CALM 0 0 0 0 - - 0.0
24/08:00pm 17.0 17.4 11.1 68 3.3 CALM 0 0 0 0 - - 0.0
24/07:30pm 17.3 17.3 11.1 67 3.5 NE 2 2 1 1 - - 0.0
24/07:00pm 17.8 18.3 11.6 67 3.6 CALM 0 0 0 0 - - 0.0
24/06:30pm 18.6 19.0 11.2 62 4.2 CALM 0 0 0 0 - - 0.0
24/06:00pm 19.3 19.8 11.6 61 4.4 CALM 0 0 0 0 - - 0.0
24/05:30pm 19.4 19.8 11.2 59 4.7 CALM 0 0 0 0 - - 0.0
24/05:00pm 20.6 21.1 11.5 56 5.3 CALM 0 2 0 1 - - 0.0
24/04:30pm 20.9 21.0 10.1 50 6.1 CALM 0 0 0 0 - - 0.0
24/04:00pm 22.1 21.5 10.3 47 6.7 NE 4 7 2 4 - - 0.0
24/03:30pm 21.7 21.0 9.9 47 6.7 NW 4 9 2 5 - - 0.0
24/03:00pm 21.7 21.2 10.8 50 6.3 NW 4 7 2 4 - - 0.0
24/02:30pm 20.9 20.1 9.5 48 6.4 ESE 4 7 2 4 - - 0.0
24/02:00pm 21.9 22.2 12.2 54 5.7 ESE 2 4 1 2 - - 0.0
24/01:30pm 19.3 18.9 11.1 59 4.7 ENE 4 7 2 4 - - 0.0
24/01:00pm 20.0 19.4 10.4 54 5.4 ENE 4 7 2 4 - - 0.0
24/12:30pm 19.4 19.0 11.2 59 4.7 ESE 4 7 2 4 - - 0.0
24/12:00pm 19.1 18.8 11.4 61 4.4 ESE 4 7 2 4 - - 0.0
24/11:30am 18.6 17.8 9.7 56 4.9 ESE 4 7 2 4 - - 0.0
24/11:00am 17.1 16.2 9.3 60 4.3 E 4 6 2 3 - - 0.0
24/10:30am 18.1 17.7 11.2 64 3.9 E 4 9 2 5 - - 0.0
24/10:00am 16.1 15.3 9.5 65 3.6 E 4 7 2 4 - - 0.0
24/09:30am 15.2 14.5 10.0 71 2.9 E 4 7 2 4 - - 0.0
24/09:00am 13.7 12.6 10.1 79 2.0 E 6 9 3 5 - - 0.0
24/08:30am 12.8 11.7 10.0 83 1.5 ESE 6 7 3 4 - - 0.0
24/08:00am 12.2 11.1 9.8 85 1.3 ESE 6 7 3 4 - - 0.0
24/07:30am 11.7 10.5 9.4 86 1.2 ESE 6 7 3 4 - - 0.0
24/07:00am 11.5 10.3 9.4 87 1.1 ESE 6 7 3 4 - - 0.0
24/06:30am 11.5 10.1 9.4 87 1.1 ESE 7 9 4 5 - - 0.0
24/06:00am 11.5 10.3 9.6 88 1.0 ESE 6 7 3 4 - - 0.0
24/05:30am 11.6 10.2 9.7 88 1.0 ESE 7 9 4 5 - - 0.0
24/05:00am 11.5 10.4 9.9 90 0.9 ESE 6 9 3 5 - - 0.0
24/04:30am 11.4 10.3 10.1 92 0.7 SE 6 9 3 5 - - 0.0
24/04:00am 11.5 10.5 10.4 93 0.6 ESE 6 11 3 6 - - 0.0
24/03:30am 11.8 10.8 10.2 90 0.9 ESE 6 11 3 6 - - 0.0
24/03:00am 11.7 10.6 10.1 90 0.9 SE 6 9 3 5 - - 0.0
24/02:30am 11.7 10.7 10.4 92 0.7 SE 6 9 3 5 - - 0.0
24/02:00am 11.8 10.9 10.5 92 0.7 SE 6 11 3 6 - - 0.0
24/01:30am 12.0 11.1 10.7 92 0.7 SE 6 7 3 4 - - 0.0
24/01:00am 12.1 11.3 11.0 93 0.6 SE 6 9 3 5 - - 0.0
24/12:30am 11.9 11.4 10.8 93 0.6 SE 4 9 2 5 - - 0.0
24/12:00am 12.2 11.3 10.8 91 0.8 SE 6 9 3 5 - - 0.0
 
Date/Time
EDT
Temp
°C
App
Temp
°C
Dew
Point
°C
Rel
Hum
%
Delta-T
°C
Wind Press
QNH
hPa
Press
MSL
hPa
Rain since
9am
mm
Dir  Spd
km/h
Gust
km/h
Spd
kts
Gust
kts
23/11:30pm 12.4 11.3 10.8 90 0.9 ESE 7 13 4 7 - - 0.0
23/11:00pm 12.3 11.3 10.9 91 0.8 SE 7 13 4 7 - - 0.0
23/10:30pm 12.6 11.5 10.8 89 1.0 ESE 7 13 4 7 - - 0.0
23/10:00pm 12.9 11.6 11.1 89 1.0 SE 9 19 5 10 - - 0.0
23/09:30pm 12.8 11.9 11.4 91 0.8 SE 7 13 4 7 - - 0.0
23/09:00pm 12.9 12.2 11.3 90 0.9 SE 6 9 3 5 - - 0.0
23/08:30pm 13.2 12.6 11.6 90 0.9 SE 6 15 3 8 - - 0.0
23/08:00pm 13.3 12.8 12.2 93 0.6 SE 6 11 3 6 - - 0.0
23/07:30pm 13.6 13.2 12.5 93 0.6 SE 6 11 3 6 - - 0.0
23/07:00pm 13.9 13.9 12.5 91 0.8 SE 4 7 2 4 - - 0.0
23/06:30pm 14.4 14.2 13.1 92 0.8 SE 6 9 3 5 - - 0.0
23/06:00pm 14.9 14.9 13.6 92 0.8 SE 6 7 3 4 - - 0.0
23/05:30pm 14.6 14.4 13.1 91 0.9 SE 6 7 3 4 - - 0.0
23/05:00pm 15.3 15.6 13.3 88 1.2 SE 4 7 2 4 - - 0.0
23/04:30pm 14.2 13.9 12.6 90 0.9 SE 6 11 3 6 - - 0.0
23/04:00pm 14.8 14.5 12.7 87 1.2 SE 6 9 3 5 - - 0.0
23/03:30pm 15.3 15.2 13.2 87 1.2 SE 6 9 3 5 - - 0.0
23/03:00pm 15.6 15.4 13.1 85 1.5 SE 6 15 3 8 - - 0.0
23/02:30pm 15.6 15.2 12.4 81 1.8 SE 6 11 3 6 - - 0.0
23/02:00pm 15.9 15.8 13.2 84 1.6 SE 6 9 3 5 - - 0.0
23/01:30pm 16.0 15.9 13.3 84 1.6 SE 6 9 3 5 - - 0.0
23/01:00pm 15.4 14.9 12.2 81 1.8 SE 6 11 3 6 - - 0.0
23/12:30pm 16.2 16.2 13.7 85 1.5 SE 6 9 3 5 - - 0.0
23/12:00pm 15.5 15.5 13.7 89 1.1 SE 6 9 3 5 - - 0.0
23/11:30am 15.0 15.0 13.5 91 0.9 SSE 6 11 3 6 - - 0.0
23/11:00am 14.4 14.1 12.8 90 0.9 SE 6 11 3 6 - - 0.0
23/10:30am 14.3 13.8 12.2 87 1.2 SE 6 7 3 4 - - 0.0
23/10:00am 13.8 13.2 11.8 88 1.1 SE 6 7 3 4 - - 0.0
23/09:30am 13.9 13.5 12.3 90 0.9 SE 6 11 3 6 - - 0.0
23/09:00am 13.2 12.6 11.8 91 0.8 SSE 6 11 3 6 - - 4.2
23/08:30am 12.8 12.2 12.2 96 0.3 SSE 7 13 4 7 - - 4.2
23/08:00am 13.2 12.3 11.3 88 1.1 SSE 7 13 4 7 - - 4.2
23/07:30am 13.3 13.0 11.4 88 1.1 SE 4 7 2 4 - - 4.2
23/07:00am 13.3 12.5 11.2 87 1.2 SE 6 11 3 6 - - 4.2
23/06:30am 13.5 12.7 11.0 85 1.4 SE 6 9 3 5 - - 4.2
23/06:00am 13.4 12.4 11.1 86 1.3 SSE 7 13 4 7 - - 4.2
23/05:30am 13.4 12.4 11.1 86 1.3 SE 7 13 4 7 - - 4.2
23/05:00am 13.4 12.7 11.3 87 1.2 SE 6 9 3 5 - - 4.2
23/04:30am 13.4 12.5 11.3 87 1.2 SE 7 11 4 6 - - 4.2
23/04:00am 13.6 12.6 11.1 85 1.4 ESE 7 13 4 7 - - 4.2
23/03:30am 13.6 12.7 11.3 86 1.3 SE 7 15 4 8 - - 4.2
23/03:00am 13.6 12.7 11.5 87 1.2 SE 7 22 4 12 - - 4.2
23/02:30am 13.6 12.7 11.5 87 1.2 SE 7 20 4 11 - - 4.2
23/02:00am 13.5 12.7 11.7 89 1.0 SE 7 13 4 7 - - 4.2
23/01:30am 13.5 12.3 11.7 89 1.0 SE 9 19 5 10 - - 4.2
23/01:00am 13.6 12.5 11.8 89 1.0 SE 9 17 5 9 - - 4.2
23/12:30am 13.6 12.5 11.8 89 1.0 SE 9 15 5 8 - - 4.2
23/12:00am 13.6 12.9 12.0 90 0.9 SE 7 13 4 7 - - 4.2
 
Date/Time
EDT
Temp
°C
App
Temp
°C
Dew
Point
°C
Rel
Hum
%
Delta-T
°C
Wind Press
QNH
hPa
Press
MSL
hPa
Rain since
9am
mm
Dir  Spd
km/h
Gust
km/h
Spd
kts
Gust
kts
22/11:30pm 13.9 13.2 12.1 89 1.0 SE 7 13 4 7 - - 4.2
22/11:00pm 14.0 13.5 12.6 91 0.8 SSE 7 13 4 7 - - 4.2
22/10:30pm 14.4 14.0 13.0 91 0.8 SE 7 20 4 11 - - 4.2
22/10:00pm 14.6 13.9 13.3 92 0.8 SE 9 20 5 11 - - 4.2
22/09:30pm 14.8 14.7 13.8 94 0.6 SE 7 17 4 9 - - 4.2
22/09:00pm 15.1 14.8 14.3 95 0.5 SSE 9 19 5 10 - - 4.2
22/08:30pm 14.9 15.2 14.9 100 0.0 ESE 7 9 4 5 - - 4.2
22/08:00pm 15.2 15.6 15.2 100 0.0 ESE 7 11 4 6 - - 4.2
22/07:30pm 15.7 16.2 15.5 99 0.1 SSE 7 15 4 8 - - 4.2
22/07:00pm 16.6 17.5 16.1 97 0.3 SE 6 9 3 5 - - 4.2

Other Formats:

Comma delimited format used in spreadsheet applications
http://www.bom.gov.au/fwo/IDV60801/IDV60801.94878.axf

JavaScript Object Notation format (JSON) in row-major order
http://www.bom.gov.au/fwo/IDV60801/IDV60801.94878.json